Time;durP1;ratioP1;P1;durP2;ratioP2;P2;SDS_P1;SDS_P2;PMS_P1;PMS_P2;Temp;Humidity;BMP_temperature;BMP_pressure;BME280_temperature;BME280_humidity;BME280_pressure;Samples;Min_cycle;Max_cycle;Signal;HPM_P1;HPM_P2
2023/03/24 00:02:22;;;;;;;4.78;2.35;;;11.50;99.90;;;;;;4995904;28;20041;-70
2023/03/24 00:04:51;;;;;;;11.32;2.38;;;11.50;99.90;;;;;;5000205;28;20415;-70
2023/03/24 00:07:18;;;;;;;9.57;2.45;;;11.50;99.90;;;;;;5015296;28;20132;-70
2023/03/24 00:09:44;;;;;;;6.35;2.85;;;11.50;99.90;;;;;;4989236;28;20382;-70
2023/03/24 00:12:12;;;;;;;7.15;2.40;;;11.50;99.90;;;;;;4994828;28;20058;-70
2023/03/24 00:14:39;;;;;;;6.50;2.78;;;11.50;99.90;;;;;;4992631;28;20218;-67
2023/03/24 00:17:08;;;;;;;5.05;2.80;;;11.50;99.90;;;;;;4977305;28;20052;-68
2023/03/24 00:19:37;;;;;;;6.88;2.80;;;11.50;99.90;;;;;;4992776;28;20139;-68
2023/03/24 00:22:04;;;;;;;5.13;2.25;;;11.50;99.90;;;;;;4990618;28;20042;-68
2023/03/24 00:24:30;;;;;;;10.50;2.78;;;11.50;99.90;;;;;;5010922;28;20071;-68
2023/03/24 00:26:56;;;;;;;6.67;2.70;;;11.50;99.90;;;;;;5015870;28;20607;-68
2023/03/24 00:29:26;;;;;;;4.30;2.30;;;11.50;99.90;;;;;;5016673;28;20046;-68
2023/03/24 00:31:51;;;;;;;5.18;2.30;;;11.50;99.90;;;;;;5006008;28;20142;-69
2023/03/24 00:34:20;;;;;;;6.68;2.80;;;11.50;99.90;;;;;;5015528;28;20067;-68
2023/03/24 00:36:50;;;;;;;7.13;3.03;;;11.40;99.90;;;;;;4998216;28;20072;-68
2023/03/24 00:39:19;;;;;;;6.60;2.85;;;11.50;99.90;;;;;;5012924;28;20183;-68
2023/03/24 00:41:46;;;;;;;6.43;2.50;;;11.40;99.90;;;;;;5013378;28;20093;-68
2023/03/24 00:44:17;;;;;;;5.00;2.03;;;11.40;99.90;;;;;;4992302;28;20034;-69
2023/03/24 00:46:54;;;;;;;6.70;2.05;;;11.40;99.90;;;;;;5008718;28;20120;-69
2023/03/24 00:49:40;;;;;;;4.80;2.33;;;11.50;99.90;;;;;;5012755;28;20470;-69
2023/03/24 00:52:20;;;;;;;4.75;2.47;;;11.50;99.90;;;;;;5014860;28;20034;-69
2023/03/24 00:54:47;;;;;;;5.72;2.15;;;11.50;99.90;;;;;;4998008;28;20686;-69
2023/03/24 00:57:20;;;;;;;4.13;2.17;;;11.40;99.90;;;;;;4988483;28;20557;-69
2023/03/24 00:59:50;;;;;;;7.30;2.13;;;11.40;99.90;;;;;;5004830;28;20057;-69
2023/03/24 01:02:21;;;;;;;3.95;2.05;;;11.40;99.90;;;;;;5016726;28;20530;-68
2023/03/24 01:05:01;;;;;;;6.78;1.90;;;11.40;99.90;;;;;;5010311;28;20455;-75
2023/03/24 01:07:28;;;;;;;7.72;2.03;;;11.40;99.90;;;;;;5011062;28;20112;-70
2023/03/24 01:09:58;;;;;;;5.78;2.88;;;11.50;99.90;;;;;;4989540;28;20050;-73
2023/03/24 01:12:30;;;;;;;5.47;2.40;;;11.40;99.90;;;;;;5004944;28;20063;-71
2023/03/24 01:15:00;;;;;;;6.60;2.35;;;11.50;99.90;;;;;;5041228;23;20050;-84
2023/03/24 01:17:26;;;;;;;5.35;2.03;;;11.50;99.90;;;;;;5007105;28;20041;-82
2023/03/24 01:19:54;;;;;;;5.17;1.90;;;11.50;99.90;;;;;;5023419;28;20061;-84
2023/03/24 01:22:25;;;;;;;4.07;2.10;;;11.40;99.90;;;;;;5006990;28;20044;-84
2023/03/24 01:24:54;;;;;;;5.32;2.45;;;11.50;99.90;;;;;;4994527;28;20072;-84
2023/03/24 01:27:27;;;;;;;4.47;2.28;;;11.50;99.90;;;;;;5004573;28;20513;-88
2023/03/24 01:30:01;;;;;;;4.78;2.90;;;11.40;99.90;;;;;;4980404;28;20050;-87
2023/03/24 01:32:29;;;;;;;7.05;2.08;;;11.50;99.90;;;;;;4974417;28;20473;-86
2023/03/24 01:34:55;;;;;;;6.33;2.30;;;11.50;99.90;;;;;;4996408;28;20083;-84
2023/03/24 01:37:22;;;;;;;4.33;2.27;;;11.50;99.90;;;;;;5008579;28;20374;-84
2023/03/24 01:39:49;;;;;;;4.53;2.20;;;11.50;99.90;;;;;;4959885;28;20520;-88
2023/03/24 01:42:20;;;;;;;7.47;2.15;;;11.50;99.90;;;;;;4986184;28;20034;-83
2023/03/24 01:44:48;;;;;;;6.82;2.08;;;11.50;99.90;;;;;;4985383;28;20042;-84
2023/03/24 01:47:14;;;;;;;4.55;2.13;;;11.60;99.90;;;;;;4989398;28;20053;-84
2023/03/24 01:49:42;;;;;;;;;;;11.50;99.90;;;;;;4966293;28;20398;-86
2023/03/24 01:52:22;;;;;;;5.50;2.10;;;11.50;99.90;;;;;;4977194;28;19921;-85
2023/03/24 01:54:54;;;;;;;6.13;2.20;;;11.50;99.90;;;;;;4983264;28;20093;-83
2023/03/24 01:57:31;;;;;;;4.82;1.92;;;11.50;99.90;;;;;;4990884;28;20102;-83
2023/03/24 02:00:02;;;;;;;4.57;1.88;;;11.50;99.90;;;;;;4991215;28;20502;-85
2023/03/24 02:02:44;;;;;;;7.13;1.98;;;11.50;99.90;;;;;;4974561;28;20053;-84
2023/03/24 02:05:16;;;;;;;4.25;2.00;;;11.50;99.90;;;;;;4975612;28;20043;-82
2023/03/24 02:07:52;;;;;;;4.75;2.58;;;11.50;99.90;;;;;;4980288;28;20265;-86
2023/03/24 02:10:19;;;;;;;5.10;1.90;;;11.50;99.90;;;;;;4968117;28;20190;-84
2023/03/24 02:12:56;;;;;;;4.75;2.13;;;11.50;99.90;;;;;;4968917;28;20049;-85
2023/03/24 02:15:24;;;;;;;6.28;2.63;;;11.50;99.90;;;;;;4985292;28;20042;-85
2023/03/24 02:18:32;;;;;;;4.47;2.45;;;11.50;99.90;;;;;;4968502;28;20067;-86
2023/03/24 02:21:19;;;;;;;4.15;1.95;;;11.50;99.90;;;;;;4990158;28;20450;-85
2023/03/24 02:24:15;;;;;;;6.80;2.33;;;11.50;99.90;;;;;;4981129;28;20082;-85
2023/03/24 02:27:12;;;;;;;3.95;2.03;;;11.50;99.90;;;;;;4987779;28;20058;-84
2023/03/24 02:29:54;;;;;;;4.15;2.42;;;11.60;99.90;;;;;;4958922;28;20048;-83
2023/03/24 02:33:00;;;;;;;4.07;2.25;;;11.60;99.90;;;;;;4997553;28;20081;-84
2023/03/24 02:36:01;;;;;;;5.60;2.63;;;11.60;99.90;;;;;;4957814;28;20132;-83
2023/03/24 02:39:04;;;;;;;4.95;2.13;;;11.60;99.90;;;;;;4976277;28;20140;-87
2023/03/24 02:41:39;;;;;;;6.80;2.50;;;11.60;99.90;;;;;;4975163;28;20042;-85
2023/03/24 02:44:39;;;;;;;3.45;2.45;;;11.60;99.90;;;;;;5000403;28;20042;-85
2023/03/24 02:47:14;;;;;;;5.40;2.05;;;11.60;99.90;;;;;;4987915;28;20116;-84
2023/03/24 02:50:04;;;;;;;4.22;2.20;;;11.60;99.90;;;;;;4986958;28;20362;-87
2023/03/24 02:52:42;;;;;;;4.32;2.22;;;11.60;99.90;;;;;;4971528;28;20034;-84
2023/03/24 02:55:39;;;;;;;5.50;2.45;;;11.70;99.90;;;;;;4964132;28;20045;-87
2023/03/24 02:58:37;;;;;;;4.38;2.42;;;11.70;99.90;;;;;;4987097;28;20050;-85
2023/03/24 03:01:27;;;;;;;4.70;2.50;;;11.70;99.90;;;;;;4961834;28;20058;-86
2023/03/24 03:04:01;;;;;;;4.35;2.65;;;11.80;99.90;;;;;;4965273;28;20042;-86
2023/03/24 03:06:30;;;;;;;4.65;2.10;;;11.90;99.90;;;;;;4966963;28;20035;-83
2023/03/24 03:09:06;;;;;;;4.82;2.28;;;11.80;99.90;;;;;;4973388;28;20116;-86
2023/03/24 03:11:35;;;;;;;4.93;2.00;;;11.70;99.90;;;;;;4991432;28;20112;-84
2023/03/24 03:14:36;;;;;;;5.47;2.17;;;11.80;99.90;;;;;;4986523;28;20053;-87
2023/03/24 03:17:17;;;;;;;5.10;2.30;;;11.60;99.90;;;;;;4974192;28;20090;-88
2023/03/24 03:20:04;;;;;;;4.13;1.95;;;11.60;99.90;;;;;;4972319;28;20042;-85
2023/03/24 03:22:55;;;;;;;3.28;1.60;;;11.50;99.90;;;;;;4988819;28;20038;-87
2023/03/24 03:25:28;;;;;;;7.20;2.45;;;11.50;99.90;;;;;;4985782;28;20042;-84
2023/03/24 03:27:59;;;;;;;2.53;1.63;;;11.30;99.90;;;;;;4987599;28;20109;-87
2023/03/24 03:30:32;;;;;;;3.53;1.45;;;11.30;99.90;;;;;;4964621;28;20034;-84
2023/03/24 03:33:26;;;;;;;4.35;1.23;;;11.30;99.90;;;;;;5002459;28;20429;-86
2023/03/24 03:36:26;;;;;;;3.28;1.70;;;11.30;99.90;;;;;;4968684;28;20054;-86
2023/03/24 03:39:14;;;;;;;4.05;1.25;;;11.20;99.90;;;;;;4980946;28;20046;-86
2023/03/24 03:41:43;;;;;;;2.72;1.00;;;11.10;99.90;;;;;;4965438;28;20054;-86
2023/03/24 03:44:11;;;;;;;4.50;1.20;;;11.10;99.90;;;;;;4979516;28;20092;-83
2023/03/24 03:46:37;;;;;;;5.60;1.27;;;11.00;99.90;;;;;;4983470;28;20038;-85
2023/03/24 03:49:05;;;;;;;6.13;1.10;;;10.90;99.90;;;;;;5004143;28;20099;-85
2023/03/24 03:51:32;;;;;;;4.80;1.10;;;10.90;99.90;;;;;;4966465;28;20073;-89
2023/03/24 03:54:10;;;;;;;5.45;1.60;;;10.90;99.90;;;;;;4987008;28;20132;-84
2023/03/24 03:56:41;;;;;;;4.45;1.02;;;10.80;99.90;;;;;;4974949;28;20176;-84
2023/03/24 03:59:09;;;;;;;3.13;0.63;;;10.90;99.90;;;;;;4963140;28;20390;-85
2023/03/24 04:01:40;;;;;;;8.75;1.25;;;10.70;99.90;;;;;;4982577;28;20069;-85
2023/03/24 04:04:11;;;;;;;3.40;0.93;;;10.70;99.90;;;;;;4985830;28;20101;-86
2023/03/24 04:06:56;;;;;;;5.13;1.08;;;10.60;99.90;;;;;;4980375;28;20048;-87
2023/03/24 04:09:37;;;;;;;5.93;0.90;;;10.60;99.90;;;;;;4971913;28;20068;-84
2023/03/24 04:12:27;;;;;;;7.60;1.55;;;10.50;99.90;;;;;;4969665;28;20057;-84
2023/03/24 04:15:15;;;;;;;3.00;1.05;;;10.50;99.90;;;;;;4978038;28;20073;-85
2023/03/24 04:18:16;;;;;;;2.92;0.93;;;10.40;99.90;;;;;;4980361;28;20034;-85
2023/03/24 04:21:32;;;;;;;4.78;0.75;;;10.40;99.90;;;;;;4946625;28;20069;-84
2023/03/24 04:24:33;;;;;;;10.23;1.58;;;10.30;99.90;;;;;;4914207;29;20062;-88
2023/03/24 04:27:26;;;;;;;3.00;1.00;;;10.20;99.90;;;;;;4982101;28;20077;-88
2023/03/24 04:29:57;;;;;;;3.53;1.10;;;10.10;99.90;;;;;;4997860;28;20046;-86
2023/03/24 04:32:47;;;;;;;5.75;1.38;;;10.10;99.90;;;;;;4965984;28;20038;-89
2023/03/24 04:35:30;;;;;;;3.20;1.02;;;10.00;99.90;;;;;;4976782;28;20033;-88
2023/03/24 04:38:03;;;;;;;5.78;1.00;;;10.00;99.90;;;;;;4979426;28;20482;-84
2023/03/24 04:40:33;;;;;;;7.50;1.17;;;9.90;99.90;;;;;;4977444;28;20042;-86
2023/03/24 04:43:03;;;;;;;4.97;1.10;;;9.90;99.90;;;;;;4982212;28;20070;-84
2023/03/24 04:45:32;;;;;;;9.88;1.52;;;9.90;99.90;;;;;;4968891;28;20050;-85
2023/03/24 04:48:04;;;;;;;6.45;1.33;;;9.90;99.90;;;;;;4972098;28;20098;-85
2023/03/24 04:51:02;;;;;;;5.53;1.30;;;9.80;99.90;;;;;;4977353;28;20053;-88
2023/03/24 04:53:30;;;;;;;6.43;1.50;;;9.70;99.90;;;;;;4966753;28;20096;-87
2023/03/24 04:56:03;;;;;;;7.70;1.77;;;9.80;99.90;;;;;;4973620;28;20567;-84
2023/03/24 04:58:38;;;;;;;6.57;1.73;;;9.80;99.90;;;;;;5007641;28;20519;-84
2023/03/24 05:01:12;;;;;;;6.68;1.05;;;9.70;99.90;;;;;;4973370;28;20065;-85
2023/03/24 05:03:44;;;;;;;5.53;1.23;;;9.70;99.90;;;;;;4963449;28;20033;-85
2023/03/24 05:06:13;;;;;;;5.15;1.42;;;9.70;99.90;;;;;;4973308;28;20090;-85
2023/03/24 05:08:41;;;;;;;7.13;1.63;;;9.70;99.90;;;;;;4988307;28;20121;-88
2023/03/24 05:11:07;;;;;;;12.02;2.40;;;9.70;99.90;;;;;;5000581;28;20676;-85
2023/03/24 05:13:35;;;;;;;6.00;1.47;;;9.70;99.90;;;;;;4987626;28;20100;-84
2023/03/24 05:16:04;;;;;;;4.53;2.05;;;9.70;99.90;;;;;;4979995;28;20694;-85
2023/03/24 05:18:32;;;;;;;7.85;2.10;;;9.70;99.90;;;;;;4972363;28;20093;-84
2023/03/24 05:21:00;;;;;;;13.35;2.38;;;9.70;99.90;;;;;;4969478;28;20050;-86
2023/03/24 05:23:26;;;;;;;8.25;1.75;;;9.70;99.90;;;;;;4980884;28;20042;-86
2023/03/24 05:26:03;;;;;;;11.32;1.58;;;9.70;99.90;;;;;;5001452;28;20125;-87
2023/03/24 05:28:44;;;;;;;8.35;2.08;;;9.60;99.90;;;;;;4982853;28;20089;-83
2023/03/24 05:31:12;;;;;;;8.68;1.90;;;9.60;99.90;;;;;;4962538;28;20517;-84
2023/03/24 05:33:38;;;;;;;9.93;1.40;;;9.60;99.90;;;;;;4981050;28;20088;-84
2023/03/24 05:36:04;;;;;;;8.27;1.53;;;9.50;99.90;;;;;;5002136;28;20058;-84
2023/03/24 05:38:29;;;;;;;11.07;1.48;;;9.50;99.90;;;;;;4988113;28;20076;-86
2023/03/24 05:40:57;;;;;;;6.60;1.77;;;9.50;99.90;;;;;;4956714;28;20049;-83
2023/03/24 05:43:23;;;;;;;7.85;1.63;;;9.50;99.90;;;;;;4966539;28;20108;-83
2023/03/24 05:45:49;;;;;;;9.93;2.53;;;9.40;99.90;;;;;;4964923;28;20034;-88
2023/03/24 05:48:14;;;;;;;8.47;1.77;;;9.40;99.90;;;;;;4964790;28;20065;-86
2023/03/24 05:50:46;;;;;;;13.47;1.77;;;9.50;99.90;;;;;;5002621;28;20207;-85
2023/03/24 05:53:14;;;;;;;6.90;1.27;;;9.40;99.90;;;;;;5002967;28;20068;-86
2023/03/24 05:55:52;;;;;;;5.93;1.10;;;9.40;99.90;;;;;;4979340;28;20038;-84
2023/03/24 05:58:20;;;;;;;7.80;1.83;;;9.30;99.90;;;;;;4983557;28;20038;-83
2023/03/24 06:00:53;;;;;;;10.95;1.92;;;9.30;99.90;;;;;;4980904;28;20039;-85
2023/03/24 06:03:19;;;;;;;9.07;1.00;;;9.30;99.90;;;;;;4984755;28;20512;-84
2023/03/24 06:05:49;;;;;;;5.83;1.33;;;9.20;99.90;;;;;;4970746;28;20042;-83
2023/03/24 06:08:15;;;;;;;6.43;1.25;;;9.30;99.90;;;;;;4967541;28;20283;-83
2023/03/24 06:10:44;;;;;;;7.70;1.38;;;9.30;99.90;;;;;;4972855;28;20474;-85
2023/03/24 06:13:13;;;;;;;6.75;1.50;;;9.30;99.90;;;;;;4989394;28;20066;-86
2023/03/24 06:15:46;;;;;;;5.90;1.23;;;9.30;99.90;;;;;;4969836;28;20133;-82
2023/03/24 06:18:16;;;;;;;10.13;2.03;;;9.30;99.90;;;;;;4983951;28;20046;-86
2023/03/24 06:20:49;;;;;;;12.25;1.30;;;9.30;99.90;;;;;;4974741;28;20049;-85
2023/03/24 06:23:27;;;;;;;7.95;1.40;;;9.30;99.90;;;;;;4972236;28;20084;-83
2023/03/24 06:26:00;;;;;;;8.65;1.77;;;9.30;99.90;;;;;;4970903;28;20042;-84
2023/03/24 06:28:29;;;;;;;8.43;1.45;;;9.40;99.90;;;;;;4959991;28;20074;-85
2023/03/24 06:31:00;;;;;;;4.63;1.80;;;9.30;99.90;;;;;;4982767;28;20116;-84
2023/03/24 06:33:25;;;;;;;7.47;1.40;;;9.30;99.90;;;;;;5009563;28;20030;-84
2023/03/24 06:35:52;;;;;;;8.73;1.10;;;9.40;99.90;;;;;;4970459;28;20112;-86
2023/03/24 06:38:17;;;;;;;10.50;2.28;;;9.40;99.90;;;;;;4984881;28;20042;-85
2023/03/24 06:40:43;;;;;;;13.57;2.10;;;9.40;99.90;;;;;;4983473;28;20048;-85
2023/03/24 06:43:09;;;;;;;8.20;1.73;;;9.50;99.90;;;;;;4997323;28;20050;-84
2023/03/24 06:45:38;;;;;;;11.38;1.67;;;9.50;99.90;;;;;;4965203;28;20869;-83
2023/03/24 06:48:04;;;;;;;13.82;2.00;;;9.50;99.90;;;;;;4983468;28;20034;-85
2023/03/24 06:50:33;;;;;;;10.00;1.98;;;9.50;99.90;;;;;;5007110;28;20041;-84
2023/03/24 06:53:00;;;;;;;15.65;2.45;;;9.50;99.90;;;;;;4965303;28;20077;-84
2023/03/24 06:55:26;;;;;;;14.15;2.40;;;9.60;99.90;;;;;;4962447;28;20042;-83
2023/03/24 06:57:54;;;;;;;10.35;1.65;;;9.60;99.90;;;;;;4964220;28;20074;-84
2023/03/24 07:00:24;;;;;;;13.90;1.65;;;9.60;99.90;;;;;;4965474;28;20053;-86
2023/03/24 07:02:51;;;;;;;10.98;2.10;;;9.60;99.90;;;;;;4984879;28;20042;-84
2023/03/24 07:05:17;;;;;;;5.88;2.05;;;9.60;99.90;;;;;;4977166;28;20121;-85
2023/03/24 07:07:43;;;;;;;;;;;9.70;99.90;;;;;;4981933;28;20048;-85
2023/03/24 07:10:12;;;;;;;13.00;2.03;;;9.70;99.90;;;;;;4976056;28;19977;-86
2023/03/24 07:12:48;;;;;;;12.90;1.70;;;9.70;99.90;;;;;;4993766;28;20140;-85
2023/03/24 07:15:14;;;;;;;15.70;1.75;;;9.70;99.90;;;;;;5022940;22;20025;-65
2023/03/24 07:17:41;;;;;;;13.52;2.70;;;9.80;99.90;;;;;;5004377;28;20045;-65
2023/03/24 07:20:08;;;;;;;13.75;2.50;;;9.80;99.90;;;;;;5004246;28;20260;-65
2023/03/24 07:22:37;;;;;;;15.38;2.60;;;9.80;99.90;;;;;;4997030;28;20402;-65
2023/03/24 07:25:04;;;;;;;18.35;2.45;;;9.90;99.90;;;;;;5021909;28;20127;-68
2023/03/24 07:27:33;;;;;;;13.60;2.33;;;9.90;99.90;;;;;;5019310;28;20037;-68
2023/03/24 07:30:03;;;;;;;9.07;2.35;;;9.90;99.90;;;;;;5004072;28;20044;-65
2023/03/24 07:32:33;;;;;;;12.02;2.67;;;10.00;99.90;;;;;;5002737;28;20111;-68
2023/03/24 07:35:03;;;;;;;10.38;2.53;;;10.00;99.90;;;;;;5002822;28;20045;-69
2023/03/24 07:37:28;;;;;;;12.52;1.98;;;10.10;99.90;;;;;;4999860;28;20041;-68
2023/03/24 07:39:54;;;;;;;9.50;2.17;;;10.10;99.90;;;;;;5007133;28;20045;-68
2023/03/24 07:42:20;;;;;;;10.75;2.42;;;10.00;99.90;;;;;;5001687;28;20076;-70
2023/03/24 07:44:46;;;;;;;18.93;3.37;;;10.10;99.90;;;;;;5009307;28;20165;-69
2023/03/24 07:47:11;;;;;;;10.60;1.83;;;10.20;99.90;;;;;;5009709;28;20530;-68
2023/03/24 07:49:37;;;;;;;15.80;1.97;;;10.20;99.90;;;;;;5028458;28;20038;-70
2023/03/24 07:52:05;;;;;;;15.80;2.27;;;10.20;99.90;;;;;;5006459;28;20033;-68
2023/03/24 07:54:34;;;;;;;14.70;2.25;;;10.20;99.90;;;;;;5024154;28;20116;-68
2023/03/24 07:57:00;;;;;;;6.95;2.00;;;10.20;99.90;;;;;;5026034;28;20045;-68
2023/03/24 07:59:28;;;;;;;17.02;2.47;;;10.20;99.90;;;;;;5027399;28;20375;-68
2023/03/24 08:01:54;;;;;;;12.90;1.90;;;10.30;99.90;;;;;;5006594;28;20128;-68
2023/03/24 08:04:19;;;;;;;13.67;2.67;;;10.30;99.90;;;;;;5009447;28;20108;-68
2023/03/24 08:06:45;;;;;;;18.57;2.67;;;10.30;99.90;;;;;;5023803;28;20103;-68
2023/03/24 08:09:11;;;;;;;18.60;2.73;;;10.30;99.90;;;;;;5005325;28;20428;-68
2023/03/24 08:11:38;;;;;;;15.32;2.75;;;10.40;99.90;;;;;;5025104;28;20073;-68
2023/03/24 08:14:03;;;;;;;12.43;2.53;;;10.40;99.90;;;;;;5026043;28;20359;-68
2023/03/24 08:16:29;;;;;;;15.03;2.70;;;10.50;99.90;;;;;;5026645;28;20447;-68
2023/03/24 08:18:57;;;;;;;14.93;2.90;;;10.40;99.90;;;;;;5011957;28;20055;-68
2023/03/24 08:21:25;;;;;;;14.55;2.67;;;10.40;99.90;;;;;;5011789;28;20523;-68
2023/03/24 08:23:51;;;;;;;9.82;2.33;;;10.50;99.90;;;;;;5026759;28;20072;-68
2023/03/24 08:26:17;;;;;;;20.08;2.55;;;10.50;99.90;;;;;;5012501;28;20496;-69
2023/03/24 08:28:43;;;;;;;18.90;3.20;;;10.60;99.90;;;;;;5017623;28;20076;-69
2023/03/24 08:31:09;;;;;;;11.43;2.33;;;10.60;99.90;;;;;;5028865;28;20286;-69
2023/03/24 08:33:35;;;;;;;16.40;3.28;;;10.70;99.90;;;;;;5033068;28;20080;-68
2023/03/24 08:36:01;;;;;;;15.82;2.88;;;10.70;99.90;;;;;;5026660;28;20119;-68
2023/03/24 08:38:30;;;;;;;13.83;2.70;;;10.80;99.90;;;;;;5012868;28;20411;-68
2023/03/24 08:41:01;;;;;;;14.57;2.72;;;10.70;99.90;;;;;;5029681;28;20038;-68
2023/03/24 08:43:29;;;;;;;17.63;3.45;;;10.80;99.90;;;;;;5025849;28;20037;-68
2023/03/24 08:46:00;;;;;;;20.23;2.95;;;10.80;99.90;;;;;;5028967;28;20034;-68
2023/03/24 08:48:26;;;;;;;12.75;2.13;;;10.90;99.90;;;;;;5030655;28;20352;-68
2023/03/24 08:50:53;;;;;;;8.57;2.90;;;10.80;99.90;;;;;;5012491;28;20183;-68
2023/03/24 08:53:19;;;;;;;22.65;2.78;;;10.90;99.90;;;;;;5012590;28;20045;-68
2023/03/24 08:55:45;;;;;;;10.45;2.38;;;10.90;99.90;;;;;;5006821;28;20053;-69
2023/03/24 08:58:19;;;;;;;17.13;2.40;;;10.90;99.90;;;;;;5029645;28;20052;-69
2023/03/24 09:00:46;;;;;;;13.25;2.17;;;10.90;99.90;;;;;;5010300;28;20048;-69
2023/03/24 09:03:17;;;;;;;14.85;1.98;;;10.90;99.90;;;;;;5009852;28;20045;-69
2023/03/24 09:05:43;;;;;;;13.52;2.30;;;11.00;99.90;;;;;;5023962;28;20495;-69
2023/03/24 09:08:09;;;;;;;;;;;11.00;99.90;;;;;;5028239;28;20398;-69
2023/03/24 09:10:35;;;;;;;12.80;2.47;;;11.00;99.90;;;;;;5033705;28;19928;-69
2023/03/24 09:13:03;;;;;;;14.80;2.47;;;11.10;99.90;;;;;;5030070;28;20042;-69
2023/03/24 09:15:28;;;;;;;14.30;2.30;;;11.20;99.90;;;;;;5011056;28;20315;-68
2023/03/24 09:17:54;;;;;;;13.23;2.10;;;11.20;99.90;;;;;;5029372;28;20092;-70
2023/03/24 09:20:20;;;;;;;17.15;2.05;;;11.20;99.90;;;;;;5029001;28;20053;-69
2023/03/24 09:22:46;;;;;;;14.97;2.67;;;11.30;99.90;;;;;;5029646;28;20163;-69
2023/03/24 09:25:15;;;;;;;16.33;1.95;;;11.30;99.90;;;;;;5030897;28;20295;-69
2023/03/24 09:27:41;;;;;;;11.30;2.00;;;11.40;99.90;;;;;;5028227;28;20089;-69
2023/03/24 09:30:09;;;;;;;7.40;1.93;;;11.40;99.90;;;;;;5036147;28;20495;-69
2023/03/24 09:32:35;;;;;;;9.05;1.60;;;11.50;99.90;;;;;;5011350;28;20085;-69
2023/03/24 09:35:01;;;;;;;13.38;2.28;;;11.50;99.90;;;;;;5017094;28;20041;-68
2023/03/24 09:37:30;;;;;;;14.50;2.60;;;11.40;99.90;;;;;;5011493;28;20158;-69
2023/03/24 09:39:58;;;;;;;16.58;2.08;;;11.40;99.90;;;;;;5011304;28;20803;-68
2023/03/24 09:42:27;;;;;;;10.63;1.92;;;11.40;99.90;;;;;;5010311;28;20041;-69
2023/03/24 09:44:56;;;;;;;8.25;2.28;;;11.50;99.90;;;;;;4994952;28;20041;-70
2023/03/24 09:47:40;;;;;;;16.60;2.35;;;11.60;99.90;;;;;;5026810;28;20041;-69
2023/03/24 09:50:29;;;;;;;12.35;2.50;;;11.70;99.90;;;;;;5026140;28;20247;-69
2023/03/24 09:53:05;;;;;;;10.18;2.00;;;11.90;99.90;;;;;;5023475;28;20099;-69
2023/03/24 09:55:31;;;;;;;10.88;2.53;;;12.00;99.90;;;;;;5029456;28;20053;-69
2023/03/24 09:58:05;;;;;;;10.85;1.80;;;12.10;99.90;;;;;;5011444;28;20056;-69
2023/03/24 10:00:32;;;;;;;10.05;2.20;;;12.10;99.90;;;;;;5011167;28;20041;-69
2023/03/24 10:03:22;;;;;;;11.27;2.22;;;12.20;99.90;;;;;;5012463;28;20380;-69
2023/03/24 10:05:54;;;;;;;11.68;1.58;;;12.40;99.90;;;;;;5022690;28;20038;-69
2023/03/24 10:08:22;;;;;;;16.30;1.65;;;12.40;99.90;;;;;;5036140;28;20376;-69
2023/03/24 10:11:02;;;;;;;9.77;2.08;;;12.40;99.90;;;;;;5034961;28;20033;-69
2023/03/24 10:14:05;;;;;;;12.82;2.05;;;12.50;99.90;;;;;;5029055;28;20044;-69
2023/03/24 10:16:49;;;;;;;7.65;2.40;;;12.50;99.90;;;;;;5040157;28;20334;-69
2023/03/24 10:19:35;;;;;;;13.25;2.35;;;12.50;99.90;;;;;;5029275;28;20120;-69
2023/03/24 10:22:14;;;;;;;10.93;2.00;;;12.60;99.90;;;;;;5026172;28;20143;-69
2023/03/24 10:25:00;;;;;;;6.97;1.30;;;12.70;99.90;;;;;;5004482;28;20345;-69
2023/03/24 10:27:47;;;;;;;9.23;2.20;;;12.70;99.90;;;;;;5047193;28;20090;-69
2023/03/24 10:30:26;;;;;;;10.77;2.20;;;12.70;99.90;;;;;;5040886;28;20077;-69
2023/03/24 10:32:53;;;;;;;14.35;2.20;;;12.70;99.90;;;;;;5033427;28;20452;-68
2023/03/24 10:35:42;;;;;;;15.18;2.13;;;12.70;99.90;;;;;;5011170;28;20124;-69
2023/03/24 10:38:19;;;;;;;9.20;1.70;;;12.60;99.90;;;;;;5002052;28;20113;-69
2023/03/24 10:40:46;;;;;;;;;;;12.70;99.90;;;;;;5028034;28;20099;-69
2023/03/24 10:43:13;;;;;;;14.68;3.05;;;12.80;99.90;;;;;;5029072;28;19924;-69
2023/03/24 10:45:46;;;;;;;16.25;2.72;;;12.90;99.90;;;;;;5030616;28;20081;-69
2023/03/24 10:48:13;;;;;;;18.33;2.47;;;13.00;99.90;;;;;;5013385;28;20120;-69
2023/03/24 10:50:43;;;;;;;7.80;1.52;;;13.00;99.90;;;;;;5007586;28;20041;-69
2023/03/24 10:53:19;;;;;;;8.07;1.92;;;12.90;99.90;;;;;;5034141;28;20437;-69
2023/03/24 10:55:46;;;;;;;16.15;2.92;;;12.70;99.90;;;;;;4999068;28;20293;-68
2023/03/24 10:58:27;;;;;;;9.38;2.00;;;12.70;99.90;;;;;;5019261;28;20418;-70
2023/03/24 11:00:54;;;;;;;8.57;2.42;;;12.80;99.90;;;;;;5017089;28;20179;-66
2023/03/24 11:03:29;;;;;;;14.70;2.13;;;13.00;99.90;;;;;;4999349;28;20053;-66
2023/03/24 11:06:00;;;;;;;15.80;1.80;;;13.20;99.90;;;;;;5012209;28;20051;-67
2023/03/24 11:08:37;;;;;;;9.48;1.90;;;13.40;99.90;;;;;;4986174;28;20477;-67
2023/03/24 11:11:33;;;;;;;8.25;2.00;;;13.40;99.90;;;;;;5003306;28;20542;-66
2023/03/24 11:14:01;;;;;;;11.77;2.13;;;13.30;99.90;;;;;;4987612;28;20199;-67
2023/03/24 11:16:35;;;;;;;12.63;2.13;;;13.20;99.90;;;;;;5015421;28;20193;-67
2023/03/24 11:19:04;;;;;;;13.07;1.88;;;13.30;99.90;;;;;;5019361;28;20072;-66
2023/03/24 11:21:36;;;;;;;7.72;1.60;;;13.40;99.90;;;;;;5002687;28;20037;-66
2023/03/24 11:24:10;;;;;;;12.50;1.88;;;13.40;99.90;;;;;;5002413;28;20453;-67
2023/03/24 11:26:38;;;;;;;15.98;2.05;;;13.50;99.90;;;;;;5011084;28;20140;-66
2023/03/24 11:29:17;;;;;;;10.77;2.33;;;13.60;99.90;;;;;;4990658;28;20406;-66
2023/03/24 11:31:52;;;;;;;11.10;2.10;;;13.60;99.90;;;;;;5015843;28;20320;-66
2023/03/24 11:34:25;;;;;;;10.63;2.10;;;13.60;99.90;;;;;;5021538;28;20061;-66
2023/03/24 11:36:55;;;;;;;16.83;2.08;;;13.70;99.90;;;;;;5011807;28;20112;-66
2023/03/24 11:39:30;;;;;;;8.82;1.38;;;13.90;99.90;;;;;;4982947;28;20069;-66
2023/03/24 11:42:15;;;;;;;9.77;1.58;;;14.00;99.90;;;;;;4998145;28;20477;-66
2023/03/24 11:44:45;;;;;;;9.90;2.20;;;13.90;99.90;;;;;;4999426;28;20413;-66
2023/03/24 11:47:32;;;;;;;8.63;1.65;;;13.80;99.90;;;;;;5020938;28;20069;-66
2023/03/24 11:50:10;;;;;;;8.75;1.67;;;13.80;99.90;;;;;;5017531;28;20514;-65
2023/03/24 11:52:41;;;;;;;14.07;1.83;;;13.80;99.90;;;;;;5006372;28;20141;-66
2023/03/24 11:55:27;;;;;;;12.80;1.92;;;13.80;99.90;;;;;;5011801;28;20041;-66
2023/03/24 11:58:15;;;;;;;13.50;2.78;;;13.70;99.90;;;;;;5000242;28;21155;-66
2023/03/24 12:00:42;;;;;;;7.72;1.83;;;13.60;99.90;;;;;;5015973;28;20042;-66
2023/03/24 12:03:45;;;;;;;12.50;1.67;;;13.60;99.90;;;;;;5011761;28;20052;-66
2023/03/24 12:06:19;;;;;;;6.30;1.00;;;13.60;99.90;;;;;;5012478;28;20048;-66
2023/03/24 12:08:54;;;;;;;12.80;1.52;;;13.70;99.90;;;;;;5003589;28;20091;-66
2023/03/24 12:11:28;;;;;;;8.02;1.45;;;13.70;99.90;;;;;;5002654;28;20474;-66
2023/03/24 12:13:56;;;;;;;9.85;1.73;;;13.80;99.90;;;;;;5019500;28;20129;-66
2023/03/24 12:16:50;;;;;;;12.07;1.85;;;14.00;99.90;;;;;;4989021;28;20136;-66
2023/03/24 12:19:35;;;;;;;9.20;1.60;;;14.10;99.90;;;;;;4987389;28;20147;-66
2023/03/24 12:22:18;;;;;;;6.95;1.67;;;14.20;99.90;;;;;;4995987;28;20048;-66
2023/03/24 12:25:03;;;;;;;15.38;2.17;;;14.20;99.90;;;;;;5022217;28;20050;-66
2023/03/24 12:28:07;;;;;;;11.07;2.45;;;14.20;99.90;;;;;;5000957;28;20064;-67
2023/03/24 12:30:54;;;;;;;12.30;2.22;;;14.20;99.90;;;;;;5019946;28;20045;-67
2023/03/24 12:33:30;;;;;;;8.18;1.50;;;14.30;99.90;;;;;;5021576;28;20399;-66
2023/03/24 12:36:07;;;;;;;14.70;1.88;;;14.40;99.90;;;;;;4998705;28;20611;-66
2023/03/24 12:38:45;;;;;;;11.18;1.75;;;14.70;99.90;;;;;;5020551;28;20340;-66
2023/03/24 12:41:29;;;;;;;6.40;1.48;;;14.80;99.90;;;;;;5003692;28;20525;-66
2023/03/24 12:44:29;;;;;;;10.10;1.92;;;14.80;99.90;;;;;;4996977;28;20303;-67
2023/03/24 12:47:33;;;;;;;11.98;1.77;;;14.70;99.90;;;;;;5003235;28;20484;-66
2023/03/24 12:50:10;;;;;;;11.02;1.65;;;14.50;99.90;;;;;;5022622;28;20112;-67
2023/03/24 12:53:03;;;;;;;7.57;2.17;;;14.10;99.90;;;;;;5019809;28;20230;-68
2023/03/24 12:55:39;;;;;;;9.52;2.40;;;14.00;99.90;;;;;;5018484;28;20037;-67
2023/03/24 12:58:15;;;;;;;6.22;1.30;;;14.10;99.90;;;;;;5011323;28;20068;-67
2023/03/24 13:00:52;;;;;;;9.30;1.37;;;14.00;99.90;;;;;;4998128;28;20055;-67
2023/03/24 13:03:34;;;;;;;6.53;1.07;;;14.10;99.90;;;;;;5001142;28;20069;-67
2023/03/24 13:06:16;;;;;;;6.85;1.02;;;14.20;99.90;;;;;;5032163;28;20275;-67
2023/03/24 13:08:48;;;;;;;8.05;1.70;;;14.20;99.90;;;;;;5015477;28;20121;-67
2023/03/24 13:11:18;;;;;;;7.72;1.50;;;14.30;99.90;;;;;;5028310;28;20524;-66
2023/03/24 13:13:45;;;;;;;8.45;1.50;;;14.30;99.90;;;;;;5015388;28;20037;-67
2023/03/24 13:16:19;;;;;;;6.38;1.73;;;14.30;99.90;;;;;;5028585;22;20045;-67
2023/03/24 13:18:58;;;;;;;8.98;2.00;;;14.20;99.80;;;;;;5021449;28;20487;-67
2023/03/24 13:21:26;;;;;;;6.63;1.10;;;14.30;99.90;;;;;;5025872;28;20087;-67